Time;durP1;ratioP1;P1;durP2;ratioP2;P2;SDS_P1;SDS_P2;PMS_P1;PMS_P2;Temp;Humidity;BMP_temperature;BMP_pressure;BME280_temperature;BME280_humidity;BME280_pressure;Samples;Min_cycle;Max_cycle;Signal;HPM_P1;HPM_P2
2021/11/29 00:01:09;;;;;;;6.78;2.92;;;;;;;4.36;76.99;100610.75;5044174;28;20082;-76
2021/11/29 00:03:35;;;;;;;;;;;;;;;4.39;77.57;100612.59;5053192;28;20570;-74
2021/11/29 00:06:00;;;;;;;6.65;3.00;;;;;;;4.41;77.25;100598.00;5029845;28;19924;-75
2021/11/29 00:08:26;;;;;;;8.63;3.10;;;;;;;4.46;77.33;100609.34;5051180;28;20036;-76
2021/11/29 00:10:51;;;;;;;4.20;2.60;;;;;;;4.49;76.89;100607.78;5028312;28;20048;-76
2021/11/29 00:13:16;;;;;;;5.88;2.90;;;;;;;4.38;76.99;100605.66;5051459;28;20048;-76
2021/11/29 00:15:42;;;;;;;4.57;2.75;;;;;;;4.25;76.75;100608.66;5035710;28;20051;-75
2021/11/29 00:18:07;;;;;;;7.60;2.63;;;;;;;4.08;76.73;100610.66;5052005;28;20056;-75
2021/11/29 00:20:33;;;;;;;3.55;2.47;;;;;;;4.00;75.83;100615.53;5042250;28;20389;-76
2021/11/29 00:23:03;;;;;;;5.93;2.40;;;;;;;3.85;75.85;100617.53;5053616;28;20040;-76
2021/11/29 00:25:29;;;;;;;8.43;3.10;;;;;;;3.72;75.72;100611.91;5031252;28;20485;-75
2021/11/29 00:27:54;;;;;;;6.68;3.13;;;;;;;3.69;76.54;100607.50;5039615;28;20364;-75
2021/11/29 00:30:20;;;;;;;6.45;3.45;;;;;;;3.65;76.42;100603.97;5041144;28;20038;-77
2021/11/29 00:32:46;;;;;;;6.70;3.53;;;;;;;3.78;76.93;100602.66;5050016;28;20054;-75
2021/11/29 00:35:12;;;;;;;8.73;4.38;;;;;;;3.79;77.01;100604.44;5030977;28;20150;-75
2021/11/29 00:37:39;;;;;;;9.05;4.25;;;;;;;3.81;77.57;100591.59;5010777;28;20501;-76
2021/11/29 00:40:07;;;;;;;9.35;4.47;;;;;;;3.85;78.02;100596.91;5035155;28;20568;-76
2021/11/29 00:42:32;;;;;;;6.55;3.92;;;;;;;3.94;76.75;100606.69;5015794;28;20112;-74
2021/11/29 00:44:57;;;;;;;10.23;3.97;;;;;;;3.97;77.45;100609.38;5045593;28;20119;-75
2021/11/29 00:47:23;;;;;;;6.25;4.05;;;;;;;4.02;77.00;100613.00;5045923;28;20067;-75
2021/11/29 00:49:48;;;;;;;7.35;3.92;;;;;;;4.01;77.56;100604.41;5033674;28;20820;-75
2021/11/29 00:52:14;;;;;;;6.68;4.05;;;;;;;4.07;77.62;100614.03;5053135;28;20043;-74
2021/11/29 00:54:39;;;;;;;7.85;3.78;;;;;;;4.11;77.37;100618.47;5049036;28;20044;-76
2021/11/29 00:57:04;;;;;;;6.97;3.63;;;;;;;4.13;76.95;100614.25;5042478;28;20051;-75
2021/11/29 00:59:30;;;;;;;5.28;3.42;;;;;;;4.20;77.08;100625.69;5040369;28;20454;-76
2021/11/29 01:01:55;;;;;;;6.25;3.45;;;;;;;4.21;77.78;100624.84;5039718;28;20115;-75
2021/11/29 01:04:21;;;;;;;8.32;3.50;;;;;;;4.30;77.59;100641.53;5050416;28;20023;-75
2021/11/29 01:06:46;;;;;;;6.70;3.55;;;;;;;3.99;78.11;100675.66;5028956;28;20067;-74
2021/11/29 01:09:11;;;;;;;8.80;4.85;;;;;;;4.07;78.28;100689.72;5051772;28;20040;-75
2021/11/29 01:11:37;;;;;;;12.60;7.38;;;;;;;4.03;77.97;100679.22;5042920;28;20708;-76
2021/11/29 01:14:02;;;;;;;10.40;7.53;;;;;;;4.31;77.44;100669.09;5036986;28;20051;-74
2021/11/29 01:16:27;;;;;;;12.73;7.32;;;;;;;4.35;76.91;100677.81;5016236;28;20482;-75
2021/11/29 01:18:53;;;;;;;10.93;7.68;;;;;;;4.30;76.58;100671.59;5053176;28;20051;-75
2021/11/29 01:21:19;;;;;;;11.57;7.63;;;;;;;4.31;76.94;100651.03;5051294;28;20232;-75
2021/11/29 01:23:45;;;;;;;10.75;7.35;;;;;;;4.34;76.53;100650.22;5038692;28;20208;-75
2021/11/29 01:26:11;;;;;;;13.05;7.78;;;;;;;4.30;76.61;100648.38;5045054;28;20167;-74
2021/11/29 01:28:37;;;;;;;11.63;7.90;;;;;;;4.22;76.90;100652.38;5048907;28;20062;-74
2021/11/29 01:31:03;;;;;;;11.48;7.75;;;;;;;4.11;76.94;100645.97;5046710;28;20179;-74
2021/11/29 01:33:28;;;;;;;12.75;7.90;;;;;;;4.03;76.49;100638.84;5008537;28;20046;-74
2021/11/29 01:35:54;;;;;;;12.98;8.75;;;;;;;4.02;77.11;100647.44;5038243;28;20048;-74
2021/11/29 01:38:19;;;;;;;13.38;9.13;;;;;;;4.02;76.70;100650.00;5032434;28;20130;-75
2021/11/29 01:40:45;;;;;;;13.38;8.95;;;;;;;4.11;76.93;100649.44;5039689;28;20520;-74
2021/11/29 01:43:13;;;;;;;12.77;9.00;;;;;;;4.15;77.03;100674.50;5054114;28;20092;-75
2021/11/29 01:45:42;;;;;;;13.90;8.82;;;;;;;4.13;77.71;100695.94;5022075;28;20124;-75
2021/11/29 01:48:08;;;;;;;15.32;9.05;;;;;;;4.15;77.23;100710.63;5034279;28;20043;-75
2021/11/29 01:50:35;;;;;;;14.82;8.95;;;;;;;4.17;77.53;100723.59;5020824;28;20478;-76
2021/11/29 01:53:00;;;;;;;13.18;8.60;;;;;;;4.16;76.48;100708.94;5045336;28;20047;-76
2021/11/29 01:55:25;;;;;;;11.68;8.13;;;;;;;4.11;76.61;100707.88;5048847;28;20036;-75
2021/11/29 01:57:54;;;;;;;13.15;8.45;;;;;;;4.05;76.10;100705.97;5024598;28;20155;-75
2021/11/29 02:00:22;;;;;;;15.65;8.65;;;;;;;3.97;75.76;100690.19;5049480;28;20168;-75
2021/11/29 02:02:50;;;;;;;13.80;9.23;;;;;;;3.99;76.70;100664.47;5026267;28;20047;-75
2021/11/29 02:05:16;;;;;;;14.95;9.45;;;;;;;3.93;76.16;100661.66;5045375;28;21161;-74
2021/11/29 02:07:42;;;;;;;14.70;9.93;;;;;;;3.92;76.78;100657.34;5027941;28;20502;-75
2021/11/29 02:10:08;;;;;;;14.57;9.32;;;;;;;3.86;76.76;100658.00;5042640;28;20059;-74
2021/11/29 02:12:34;;;;;;;16.27;9.60;;;;;;;3.80;76.20;100650.03;5031381;28;20265;-75
2021/11/29 02:14:59;;;;;;;13.68;9.82;;;;;;;3.76;76.48;100647.28;5045852;28;20047;-74
2021/11/29 02:17:25;;;;;;;13.88;9.27;;;;;;;3.74;76.75;100651.50;5031503;28;20131;-75
2021/11/29 02:19:50;;;;;;;16.92;9.88;;;;;;;3.66;76.70;100638.31;5019232;28;20039;-74
2021/11/29 02:22:15;;;;;;;13.40;9.25;;;;;;;3.64;77.05;100646.03;5029839;28;20052;-74
2021/11/29 02:24:43;;;;;;;13.50;9.35;;;;;;;3.65;77.06;100646.91;5048268;28;20436;-74
2021/11/29 02:27:08;;;;;;;13.40;8.88;;;;;;;3.59;76.68;100644.09;5041320;28;20039;-74
2021/11/29 02:29:35;;;;;;;12.65;8.70;;;;;;;3.53;76.09;100646.44;5037368;28;20093;-74
2021/11/29 02:32:01;;;;;;;13.13;8.25;;;;;;;3.46;76.26;100647.91;5010429;28;20164;-74
2021/11/29 02:34:29;;;;;;;14.55;10.02;;;;;;;3.37;76.40;100644.97;5044561;28;20130;-75
2021/11/29 02:36:56;;;;;;;15.02;9.48;;;;;;;3.43;76.94;100641.75;5028780;28;20771;-74
2021/11/29 02:39:23;;;;;;;16.42;10.02;;;;;;;3.48;76.42;100645.34;5051380;28;20048;-74
2021/11/29 02:41:49;;;;;;;20.40;11.52;;;;;;;3.55;76.74;100648.22;5041781;28;20109;-74
2021/11/29 02:44:17;;;;;;;16.98;11.18;;;;;;;3.60;76.78;100640.66;5047529;28;20040;-74
2021/11/29 02:46:42;;;;;;;18.10;11.32;;;;;;;3.74;76.93;100648.91;5038098;28;20024;-74
2021/11/29 02:49:09;;;;;;;18.73;11.77;;;;;;;3.75;77.60;100648.97;5027892;28;20040;-74
2021/11/29 02:51:44;;;;;;;16.33;10.70;;;;;;;3.71;76.68;100644.56;5044971;28;20119;-73
2021/11/29 02:54:10;;;;;;;;;;;;;;;3.61;77.51;100650.16;5043844;28;20052;-72
2021/11/29 02:56:38;;;;;;;18.02;11.20;;;;;;;3.54;77.43;100638.75;5019100;28;19939;-75
2021/11/29 02:59:12;;;;;;;19.15;11.70;;;;;;;3.53;77.48;100638.72;5049555;28;20040;-73
2021/11/29 03:01:42;;;;;;;17.70;11.05;;;;;;;3.56;77.41;100646.53;5029245;28;20155;-75
2021/11/29 03:04:07;;;;;;;23.17;12.60;;;;;;;3.55;77.47;100645.66;5036067;28;20044;-74
2021/11/29 03:06:33;;;;;;;17.35;11.82;;;;;;;3.55;76.91;100660.25;5042314;28;20354;-74
2021/11/29 03:08:58;;;;;;;20.70;13.32;;;;;;;3.53;77.40;100664.47;5045919;28;20040;-74
2021/11/29 03:11:25;;;;;;;18.85;11.75;;;;;;;3.55;77.02;100671.44;5052437;28;20051;-73
2021/11/29 03:13:51;;;;;;;20.73;12.45;;;;;;;3.52;77.45;100668.75;5028475;28;20070;-74
2021/11/29 03:16:16;;;;;;;22.08;13.50;;;;;;;3.53;77.29;100673.09;5047885;28;20048;-73
2021/11/29 03:18:43;;;;;;;17.63;10.80;;;;;;;3.59;76.69;100693.06;5033642;28;20066;-74
2021/11/29 03:21:11;;;;;;;21.90;12.70;;;;;;;3.58;76.93;100696.47;5050037;28;20035;-73
2021/11/29 03:23:37;;;;;;;23.15;12.40;;;;;;;3.71;77.57;100701.28;5049214;28;20451;-73
2021/11/29 03:26:07;;;;;;;20.10;10.77;;;;;;;3.80;77.54;100700.72;5040519;28;20312;-74
2021/11/29 03:28:39;;;;;;;19.85;9.57;;;;;;;3.91;77.10;100708.03;5026302;28;20598;-74
2021/11/29 03:31:06;;;;;;;13.88;8.07;;;;;;;4.01;77.02;100720.47;5043159;28;20043;-73
2021/11/29 03:33:32;;;;;;;9.93;4.63;;;;;;;4.06;76.94;100715.47;5050999;28;20036;-73
2021/11/29 03:35:58;;;;;;;6.50;2.60;;;;;;;4.28;76.51;100693.88;5034223;28;20043;-74
2021/11/29 03:38:24;;;;;;;4.78;2.10;;;;;;;4.40;75.80;100691.75;5048146;28;20114;-74
2021/11/29 03:40:49;;;;;;;3.85;1.30;;;;;;;4.42;75.98;100683.25;5044983;28;20894;-74
2021/11/29 03:43:15;;;;;;;3.72;1.10;;;;;;;4.43;75.41;100690.16;5030455;28;20028;-74
2021/11/29 03:45:40;;;;;;;4.40;1.10;;;;;;;4.44;75.00;100679.03;5047873;28;20055;-74
2021/11/29 03:48:06;;;;;;;4.18;0.90;;;;;;;4.40;75.61;100676.25;5045579;28;20098;-74
2021/11/29 03:50:31;;;;;;;4.28;0.88;;;;;;;4.36;75.04;100674.41;5034240;28;20050;-74
2021/11/29 03:52:56;;;;;;;4.07;0.75;;;;;;;4.26;75.46;100678.38;5049707;28;20157;-74
2021/11/29 03:55:22;;;;;;;3.70;0.98;;;;;;;4.18;74.96;100673.75;5044969;28;20497;-75
2021/11/29 03:57:47;;;;;;;4.78;0.70;;;;;;;4.12;75.16;100677.00;5040613;28;20077;-76
2021/11/29 04:00:14;;;;;;;2.95;0.80;;;;;;;4.07;74.77;100675.97;5042058;28;20044;-74
2021/11/29 04:02:39;;;;;;;6.57;0.90;;;;;;;4.03;75.36;100682.69;5037243;28;20039;-74
2021/11/29 04:05:05;;;;;;;2.25;0.60;;;;;;;3.99;74.82;100677.38;5033396;28;20032;-74
2021/11/29 04:07:30;;;;;;;3.15;0.65;;;;;;;3.98;75.50;100686.81;5052636;28;20217;-74
2021/11/29 04:09:55;;;;;;;7.30;0.90;;;;;;;3.95;75.10;100680.66;5033793;28;20104;-74
2021/11/29 04:12:22;;;;;;;4.10;1.00;;;;;;;4.04;75.47;100687.03;5048978;28;20127;-74
2021/11/29 04:14:47;;;;;;;7.40;0.95;;;;;;;4.00;75.72;100689.44;5034815;28;20097;-74
2021/11/29 04:17:12;;;;;;;8.25;0.98;;;;;;;4.02;75.45;100690.41;5045259;28;20063;-74
2021/11/29 04:19:43;;;;;;;9.38;1.20;;;;;;;4.05;75.56;100685.31;5041542;28;20451;-74
2021/11/29 04:22:08;;;;;;;4.75;0.98;;;;;;;4.08;75.78;100691.50;5044752;28;20496;-75
2021/11/29 04:24:36;;;;;;;5.00;1.20;;;;;;;4.20;75.46;100698.78;5044857;28;20046;-74
2021/11/29 04:27:03;;;;;;;7.28;1.25;;;;;;;4.30;74.44;100708.63;5029616;28;20075;-74
2021/11/29 04:29:30;;;;;;;9.95;1.38;;;;;;;4.58;72.43;100718.19;5044787;28;20048;-75
2021/11/29 04:31:55;;;;;;;5.07;0.90;;;;;;;4.58;70.60;100697.53;5037590;28;20056;-76
2021/11/29 04:34:21;;;;;;;4.60;0.95;;;;;;;4.73;70.05;100695.50;5053430;28;20058;-75
2021/11/29 04:36:46;;;;;;;9.45;0.73;;;;;;;4.78;68.05;100695.63;5048158;28;20811;-75
2021/11/29 04:39:12;;;;;;;3.15;0.88;;;;;;;4.94;67.59;100684.97;5051879;28;20043;-76
2021/11/29 04:41:37;;;;;;;6.47;0.77;;;;;;;4.89;67.69;100684.84;5052235;28;20185;-76
2021/11/29 04:44:03;;;;;;;6.25;0.80;;;;;;;4.89;68.68;100690.00;5041366;28;20289;-76
2021/11/29 04:46:28;;;;;;;3.97;0.85;;;;;;;4.90;70.10;100703.78;5048531;28;21065;-76
2021/11/29 04:48:54;;;;;;;4.15;0.77;;;;;;;4.76;67.94;100718.81;5049313;28;20758;-74
2021/11/29 04:51:19;;;;;;;6.57;0.85;;;;;;;4.96;68.99;100727.25;5048489;28;20501;-75
2021/11/29 04:53:44;;;;;;;5.55;1.00;;;;;;;5.14;70.28;100729.56;5047004;28;20040;-74
2021/11/29 04:56:10;;;;;;;4.35;0.90;;;;;;;5.04;71.11;100720.66;5030237;28;20036;-74
2021/11/29 04:58:35;;;;;;;5.38;1.10;;;;;;;5.00;71.44;100708.44;5025968;28;20073;-74
2021/11/29 05:01:00;;;;;;;4.95;1.00;;;;;;;4.92;71.97;100714.19;5049348;28;20036;-76
2021/11/29 05:03:26;;;;;;;9.48;1.23;;;;;;;4.82;72.16;100716.44;5049890;28;20064;-74
2021/11/29 05:05:51;;;;;;;5.32;0.90;;;;;;;4.77;72.75;100715.41;5042503;28;20079;-76
2021/11/29 05:08:17;;;;;;;7.47;1.30;;;;;;;4.73;73.63;100716.16;5048859;28;20104;-74
2021/11/29 05:10:43;;;;;;;9.10;1.20;;;;;;;4.73;73.19;100699.78;5037439;28;20051;-75
2021/11/29 05:13:09;;;;;;;9.40;1.30;;;;;;;4.74;72.62;100701.53;5052515;28;20127;-76
2021/11/29 05:15:35;;;;;;;6.22;1.10;;;;;;;4.74;72.19;100717.91;5029213;28;20054;-74
2021/11/29 05:18:00;;;;;;;8.88;1.58;;;;;;;4.72;72.11;100703.19;5020383;28;20874;-75
2021/11/29 05:20:25;;;;;;;13.38;1.58;;;;;;;4.68;72.74;100706.50;5040825;28;20067;-74
2021/11/29 05:22:51;;;;;;;6.95;1.30;;;;;;;4.72;72.38;100708.34;5037863;28;20108;-74
2021/11/29 05:25:19;;;;;;;12.98;1.67;;;;;;;4.76;72.65;100710.19;5039875;28;20048;-74
2021/11/29 05:27:44;;;;;;;6.10;1.10;;;;;;;4.75;72.66;100718.81;5039923;28;20047;-70
2021/11/29 05:30:10;;;;;;;8.95;1.55;;;;;;;4.73;73.33;100728.19;5044269;28;20047;-74
2021/11/29 05:32:35;;;;;;;6.50;1.02;;;;;;;4.84;72.35;100735.47;5047847;28;20051;-76
2021/11/29 05:35:01;;;;;;;8.27;1.20;;;;;;;4.96;70.44;100749.63;5055567;28;20131;-74
2021/11/29 05:37:26;;;;;;;7.32;1.42;;;;;;;5.40;68.29;100757.13;5049725;28;20131;-76
2021/11/29 05:39:52;;;;;;;8.27;0.98;;;;;;;5.39;67.94;100757.97;5020445;28;20136;-75
2021/11/29 05:42:17;;;;;;;3.45;0.88;;;;;;;5.48;68.15;100771.19;5048292;28;20385;-75
2021/11/29 05:44:43;;;;;;;3.50;0.90;;;;;;;5.23;68.74;100761.78;5009741;28;20083;-74
2021/11/29 05:47:08;;;;;;;3.45;0.90;;;;;;;5.22;69.40;100762.59;5049420;28;20511;-75
2021/11/29 05:49:34;;;;;;;3.67;0.80;;;;;;;5.28;69.44;100782.59;5026934;28;20058;-76
2021/11/29 05:52:00;;;;;;;6.63;0.90;;;;;;;5.17;67.98;100783.94;5039983;28;20578;-73
2021/11/29 05:54:26;;;;;;;4.90;1.10;;;;;;;5.53;67.84;100771.34;5020614;28;20109;-73
2021/11/29 05:56:51;;;;;;;8.48;0.95;;;;;;;5.49;68.66;100759.16;5047254;28;20462;-74
2021/11/29 05:59:20;;;;;;;4.80;0.82;;;;;;;5.32;68.48;100756.88;5040492;28;20051;-74
2021/11/29 06:01:46;;;;;;;3.33;0.98;;;;;;;5.27;67.92;100760.16;5042958;28;20086;-74
2021/11/29 06:04:11;;;;;;;3.35;0.90;;;;;;;5.13;68.71;100756.22;5049513;28;20071;-75
2021/11/29 06:06:36;;;;;;;8.80;1.35;;;;;;;4.92;69.02;100758.09;5030353;28;20123;-75
2021/11/29 06:09:02;;;;;;;4.32;0.70;;;;;;;4.76;70.33;100761.84;5045029;28;20615;-73
2021/11/29 06:11:27;;;;;;;3.42;0.80;;;;;;;4.60;70.49;100756.97;5049444;28;20044;-74
2021/11/29 06:13:54;;;;;;;8.15;1.00;;;;;;;4.57;71.44;100772.38;5039120;28;20067;-75
2021/11/29 06:16:19;;;;;;;2.47;0.77;;;;;;;4.60;72.24;100767.31;5038422;28;20060;-75
2021/11/29 06:18:45;;;;;;;4.28;0.80;;;;;;;4.62;72.50;100773.41;5046207;28;20078;-73
2021/11/29 06:21:10;;;;;;;3.72;0.93;;;;;;;4.66;73.43;100775.28;5051116;28;20044;-75
2021/11/29 06:23:37;;;;;;;3.70;1.00;;;;;;;4.68;73.66;100778.81;5038850;28;20046;-75
2021/11/29 06:26:03;;;;;;;5.85;1.30;;;;;;;4.74;73.92;100797.09;5048360;28;20134;-74
2021/11/29 06:28:28;;;;;;;5.38;1.20;;;;;;;4.79;74.09;100801.59;5043560;28;20038;-74
2021/11/29 06:30:54;;;;;;;6.20;1.30;;;;;;;4.93;73.83;100809.84;5054516;28;20477;-74
2021/11/29 06:33:19;;;;;;;7.25;1.02;;;;;;;5.10;72.71;100800.06;5050230;28;20134;-74
2021/11/29 06:35:45;;;;;;;7.78;1.10;;;;;;;5.28;71.83;100786.06;5038047;28;20037;-74
2021/11/29 06:38:10;;;;;;;7.18;0.90;;;;;;;5.44;70.97;100776.19;5051154;28;20112;-74
2021/11/29 06:40:35;;;;;;;4.63;1.02;;;;;;;5.58;70.49;100782.69;5030264;28;20028;-75
2021/11/29 06:43:02;;;;;;;8.27;1.13;;;;;;;5.67;70.09;100780.44;5055751;28;20101;-75
2021/11/29 06:45:27;;;;;;;6.80;1.30;;;;;;;5.66;70.03;100800.22;5045365;28;20350;-74
2021/11/29 06:47:54;;;;;;;5.97;1.23;;;;;;;5.85;69.46;100806.88;5044568;28;20136;-75
2021/11/29 06:50:20;;;;;;;9.20;1.10;;;;;;;5.88;69.04;100799.22;5048861;28;20048;-75
2021/11/29 06:52:46;;;;;;;5.25;1.10;;;;;;;5.93;68.15;100799.34;5044152;28;20048;-75
2021/11/29 06:55:15;;;;;;;9.25;1.40;;;;;;;6.05;68.30;100805.78;5034356;28;21072;-75
2021/11/29 06:57:41;;;;;;;13.00;1.40;;;;;;;6.09;68.00;100804.19;5049160;28;20040;-74
2021/11/29 07:00:08;;;;;;;6.63;1.40;;;;;;;6.21;68.30;100803.66;5046551;28;22484;-75
2021/11/29 07:02:34;;;;;;;8.35;1.08;;;;;;;6.19;68.27;100807.91;5038014;28;20081;-75
2021/11/29 07:04:59;;;;;;;6.10;1.30;;;;;;;6.27;68.71;100814.19;5054340;28;20036;-75
2021/11/29 07:07:24;;;;;;;9.40;1.30;;;;;;;6.21;69.18;100816.59;5036522;28;20421;-75
2021/11/29 07:09:50;;;;;;;9.55;1.17;;;;;;;6.19;69.12;100811.38;5018740;28;20056;-74
2021/11/29 07:12:16;;;;;;;5.43;1.40;;;;;;;6.18;69.65;100814.78;5029029;28;20044;-74
2021/11/29 07:14:42;;;;;;;9.20;1.30;;;;;;;6.15;70.00;100824.19;5020016;28;20492;-75
2021/11/29 07:17:07;;;;;;;5.18;1.10;;;;;;;6.07;69.92;100824.84;5026582;28;20032;-74
2021/11/29 07:19:33;;;;;;;12.13;2.10;;;;;;;5.93;68.34;100833.88;5026748;28;20032;-76
2021/11/29 07:21:58;;;;;;;10.20;1.67;;;;;;;6.15;67.49;100839.72;5022613;28;20876;-76
2021/11/29 07:24:23;;;;;;;6.75;1.30;;;;;;;6.21;65.62;100842.50;5031777;28;20040;-75
2021/11/29 07:26:49;;;;;;;7.63;1.40;;;;;;;6.38;66.07;100842.16;5031720;28;20082;-76
2021/11/29 07:29:14;;;;;;;11.00;1.55;;;;;;;6.45;66.55;100838.03;5027725;28;20119;-74
2021/11/29 07:31:41;;;;;;;8.50;1.58;;;;;;;6.42;66.58;100840.53;5027194;28;20072;-74
2021/11/29 07:34:07;;;;;;;8.35;1.15;;;;;;;6.39;65.95;100848.22;5026034;28;20056;-74
2021/11/29 07:36:33;;;;;;;6.93;1.30;;;;;;;6.35;66.20;100839.47;5030501;28;20079;-73
2021/11/29 07:38:58;;;;;;;6.57;1.45;;;;;;;6.30;66.52;100843.63;5028870;28;20068;-75
2021/11/29 07:41:24;;;;;;;5.90;1.40;;;;;;;6.32;66.36;100844.56;5030819;28;20534;-74
2021/11/29 07:43:50;;;;;;;9.18;1.40;;;;;;;6.21;66.84;100840.78;5019988;28;20040;-75
2021/11/29 07:46:16;;;;;;;9.25;1.50;;;;;;;6.36;67.22;100845.53;5029678;28;20444;-73
2021/11/29 07:48:42;;;;;;;8.10;1.65;;;;;;;6.41;67.13;100846.53;5031246;28;20123;-75
2021/11/29 07:51:07;;;;;;;13.82;1.83;;;;;;;6.49;65.90;100851.13;5028347;28;20052;-74
2021/11/29 07:53:33;;;;;;;9.90;1.50;;;;;;;6.67;65.84;100865.44;5028097;28;20812;-74
2021/11/29 07:55:58;;;;;;;9.00;1.20;;;;;;;6.83;66.20;100860.72;5019179;28;20156;-74
2021/11/29 07:58:24;;;;;;;7.95;1.38;;;;;;;6.87;65.77;100866.88;5031973;28;20044;-75
2021/11/29 08:00:49;;;;;;;10.48;1.60;;;;;;;6.94;66.22;100871.41;5028295;28;20519;-75
2021/11/29 08:03:15;;;;;;;14.30;2.08;;;;;;;6.97;66.86;100874.06;5030743;28;20040;-75
2021/11/29 08:05:41;;;;;;;12.77;1.65;;;;;;;7.02;67.14;100880.25;5014428;28;20071;-75
2021/11/29 08:08:08;;;;;;;12.20;1.60;;;;;;;7.03;66.38;100884.59;5034281;28;20133;-75
2021/11/29 08:10:36;;;;;;;10.50;1.65;;;;;;;7.09;67.13;100878.72;5045568;28;20354;-75
2021/11/29 08:13:02;;;;;;;9.88;1.60;;;;;;;7.13;66.33;100878.88;5034633;28;20103;-74
2021/11/29 08:15:29;;;;;;;11.32;1.50;;;;;;;7.11;65.70;100883.13;5047729;28;20063;-74
2021/11/29 08:17:55;;;;;;;17.30;1.75;;;;;;;7.26;65.57;100885.22;5032018;28;20048;-75
2021/11/29 08:20:23;;;;;;;16.83;1.70;;;;;;;7.34;64.49;100879.41;5040362;28;20051;-74
2021/11/29 08:22:49;;;;;;;10.55;1.95;;;;;;;7.33;64.73;100881.97;5041912;28;20408;-74
2021/11/29 08:25:15;;;;;;;13.95;1.85;;;;;;;7.44;64.30;100871.91;5043382;28;20035;-75
2021/11/29 08:27:40;;;;;;;16.70;2.22;;;;;;;7.55;64.93;100879.09;5026196;28;20040;-74
2021/11/29 08:30:08;;;;;;;11.00;1.48;;;;;;;7.46;63.67;100888.34;5002132;28;20144;-75
2021/11/29 08:32:34;;;;;;;13.93;1.67;;;;;;;7.53;64.00;100892.88;5029498;28;20044;-74
2021/11/29 08:35:00;;;;;;;9.43;1.40;;;;;;;7.39;65.29;100899.41;5033643;28;20481;-74
2021/11/29 08:37:25;;;;;;;10.80;1.30;;;;;;;7.39;65.52;100902.00;5049493;28;20043;-74
2021/11/29 08:39:51;;;;;;;12.18;1.65;;;;;;;7.54;65.78;100907.59;5033765;28;20421;-74
2021/11/29 08:42:16;;;;;;;13.40;1.67;;;;;;;7.40;65.84;100906.34;5037914;28;20040;-73
2021/11/29 08:44:42;;;;;;;10.13;1.88;;;;;;;7.43;66.19;100912.50;5046962;28;20059;-75
2021/11/29 08:47:07;;;;;;;7.03;1.40;;;;;;;7.43;65.79;100909.03;5045937;28;20048;-74
2021/11/29 08:49:33;;;;;;;11.95;1.60;;;;;;;7.66;66.04;100913.97;5045767;28;20410;-74
2021/11/29 08:51:58;;;;;;;9.43;1.35;;;;;;;7.69;65.80;100908.84;5013606;28;20501;-74
2021/11/29 08:54:24;;;;;;;9.73;1.33;;;;;;;7.61;66.07;100906.94;5023490;28;20051;-74
2021/11/29 08:56:50;;;;;;;10.50;1.60;;;;;;;7.63;66.30;100931.16;5047564;28;20048;-74
2021/11/29 08:59:18;;;;;;;13.45;1.60;;;;;;;7.67;67.04;100936.50;5040045;28;20035;-74
2021/11/29 09:01:44;;;;;;;9.73;1.60;;;;;;;7.63;67.09;100932.06;5020618;28;20591;-76
2021/11/29 09:04:10;;;;;;;14.02;1.88;;;;;;;7.49;66.88;100943.81;5026660;28;20052;-74
2021/11/29 09:06:36;;;;;;;17.40;1.90;;;;;;;7.57;66.93;100950.06;5047371;28;20545;-73
2021/11/29 09:09:02;;;;;;;10.63;1.70;;;;;;;7.52;65.58;100951.66;5053195;28;20559;-76
2021/11/29 09:11:28;;;;;;;10.57;1.30;;;;;;;7.56;64.76;100943.09;5043056;28;20456;-74
2021/11/29 09:13:53;;;;;;;6.50;1.10;;;;;;;7.72;64.29;100949.59;5018094;28;20052;-73
2021/11/29 09:16:19;;;;;;;10.57;1.20;;;;;;;7.78;63.42;100951.47;5042017;28;20043;-73
2021/11/29 09:18:45;;;;;;;8.45;1.38;;;;;;;7.95;63.25;100955.34;5043144;28;20071;-73
2021/11/29 09:21:12;;;;;;;5.45;1.40;;;;;;;7.96;62.23;100957.13;5039154;28;20038;-75
2021/11/29 09:23:40;;;;;;;8.55;1.20;;;;;;;7.97;61.82;100964.06;5044844;28;20523;-73
2021/11/29 09:26:05;;;;;;;8.93;1.30;;;;;;;8.08;63.32;100967.81;5029542;28;20673;-73
2021/11/29 09:28:31;;;;;;;9.27;1.60;;;;;;;8.01;63.20;100955.50;5042287;28;20065;-74
2021/11/29 09:30:57;;;;;;;4.65;0.90;;;;;;;8.17;63.30;100978.44;5044291;28;20042;-73
2021/11/29 09:33:23;;;;;;;3.45;1.05;;;;;;;8.15;63.56;100975.81;5048322;28;20503;-74
2021/11/29 09:35:49;;;;;;;3.95;0.70;;;;;;;8.15;63.83;100972.31;5032865;28;20552;-73
2021/11/29 09:38:14;;;;;;;5.97;1.08;;;;;;;8.21;63.62;100981.97;5051361;28;20047;-74
2021/11/29 09:40:41;;;;;;;7.65;1.55;;;;;;;8.26;63.87;100986.44;5042727;28;20462;-75
2021/11/29 09:43:10;;;;;;;9.65;1.30;;;;;;;8.25;63.75;100995.06;5048599;28;20056;-75
2021/11/29 09:45:38;;;;;;;10.82;1.83;;;;;;;8.25;65.16;100997.66;5038618;28;20043;-74
2021/11/29 09:48:07;;;;;;;6.75;1.42;;;;;;;8.34;65.78;100997.94;5014278;28;20062;-75
2021/11/29 09:50:32;;;;;;;7.40;1.38;;;;;;;8.16;65.75;101007.84;5055762;28;20043;-74
2021/11/29 09:52:58;;;;;;;8.73;1.58;;;;;;;8.20;65.82;101003.59;5045599;28;20086;-75
2021/11/29 09:55:26;;;;;;;6.57;1.17;;;;;;;8.08;65.57;101009.34;5058309;28;20040;-74
2021/11/29 09:57:53;;;;;;;9.73;1.30;;;;;;;8.09;65.90;101018.91;5037521;28;20589;-75
2021/11/29 10:00:24;;;;;;;6.45;1.20;;;;;;;8.13;66.33;101024.22;5048814;28;20051;-74
2021/11/29 10:02:50;;;;;;;7.50;1.40;;;;;;;8.04;67.42;101023.09;5051722;28;20176;-75
2021/11/29 10:05:17;;;;;;;8.70;1.10;;;;;;;7.85;68.00;101026.94;5045977;28;20581;-74
2021/11/29 10:07:50;;;;;;;7.07;1.10;;;;;;;8.04;68.28;101020.50;5048655;28;20048;-75
2021/11/29 10:10:16;;;;;;;5.03;1.20;;;;;;;8.00;68.86;101011.75;5046663;28;20043;-75
2021/11/29 10:12:43;;;;;;;8.07;1.40;;;;;;;8.00;68.50;101024.72;5052097;28;20035;-75
2021/11/29 10:15:32;;;;;;;7.65;1.35;;;;;;;7.95;68.40;101018.53;5050629;28;20039;-75
2021/11/29 10:18:11;;;;;;;8.65;2.00;;;;;;;7.98;68.27;101012.56;5021761;28;20040;-74
2021/11/29 10:20:56;;;;;;;6.85;1.27;;;;;;;8.09;68.25;101018.91;5045604;28;20055;-75
2021/11/29 10:23:42;;;;;;;5.97;1.20;;;;;;;8.20;66.82;101020.06;5031872;28;20175;-74
2021/11/29 10:26:11;;;;;;;9.38;1.73;;;;;;;8.15;66.50;101032.94;5047058;28;20120;-76
2021/11/29 10:28:39;;;;;;;15.48;1.50;;;;;;;8.10;67.48;101031.94;5032074;28;20036;-74
2021/11/29 10:31:09;;;;;;;5.00;1.50;;;;;;;8.15;67.84;101030.34;5047249;28;20036;-75
2021/11/29 10:33:57;;;;;;;9.35;1.80;;;;;;;8.17;67.55;101032.97;5022553;28;20081;-73
2021/11/29 10:36:24;;;;;;;6.95;1.65;;;;;;;8.14;67.90;101033.75;5046738;28;20110;-76
2021/11/29 10:38:54;;;;;;;6.00;1.42;;;;;;;8.07;68.08;101037.03;5021464;28;20132;-73
2021/11/29 10:41:26;;;;;;;9.65;1.15;;;;;;;8.17;67.63;101045.06;5048673;28;20047;-77
2021/11/29 10:43:52;;;;;;;11.68;1.50;;;;;;;8.20;67.46;101042.53;5018042;28;20036;-74
2021/11/29 10:46:25;;;;;;;11.43;1.13;;;;;;;8.26;67.35;101040.97;5044632;28;20723;-75
2021/11/29 10:48:52;;;;;;;3.75;0.80;;;;;;;8.03;67.82;101043.00;5032510;28;20500;-74
2021/11/29 10:51:20;;;;;;;4.65;0.70;;;;;;;8.31;67.09;101034.22;5039414;28;20329;-75
2021/11/29 10:54:07;;;;;;;4.88;0.70;;;;;;;8.18;67.35;101031.22;5037734;28;20066;-72
2021/11/29 10:56:35;;;;;;;6.85;1.60;;;;;;;8.11;68.02;101038.88;5038697;28;20124;-77
2021/11/29 10:59:03;;;;;;;4.05;0.90;;;;;;;8.23;68.22;101029.66;5049447;28;20420;-77
2021/11/29 11:01:44;;;;;;;6.82;0.93;;;;;;;8.53;67.23;101046.03;5042182;28;20476;-75
2021/11/29 11:04:12;;;;;;;6.78;1.33;;;;;;;8.81;66.04;101039.75;5028906;28;20063;-75
2021/11/29 11:06:40;;;;;;;12.38;1.27;;;;;;;8.87;65.13;101035.56;5050877;28;20032;-76
2021/11/29 11:09:25;;;;;;;8.88;1.40;;;;;;;8.95;65.06;101036.63;5039909;28;20036;-76
2021/11/29 11:11:53;;;;;;;6.55;0.90;;;;;;;8.44;66.78;101056.19;5021751;28;20669;-74
2021/11/29 11:14:21;;;;;;;6.10;0.90;;;;;;;8.09;68.36;101063.94;5046691;28;20390;-75
2021/11/29 11:16:57;;;;;;;7.20;1.10;;;;;;;7.98;68.69;101067.09;5050004;28;20479;-75
2021/11/29 11:19:24;;;;;;;3.20;1.00;;;;;;;7.85;69.59;101072.78;5043439;28;20115;-74
2021/11/29 11:21:50;;;;;;;5.78;0.70;;;;;;;7.68;69.68;101062.78;5014447;28;20551;-76
2021/11/29 11:24:25;;;;;;;3.17;0.60;;;;;;;7.67;69.70;101065.38;5052831;28;20039;-76
2021/11/29 11:26:55;;;;;;;5.72;0.82;;;;;;;7.77;69.63;101069.09;5041228;28;20131;-78
2021/11/29 11:29:56;;;;;;;5.32;0.70;;;;;;;7.54;70.67;101074.50;5030936;28;20561;-75